sensor_id;sensor_type;location;lat;lon;timestamp;temperature;humidity
55026;DHT22;40925;45.666;18.994;2022-11-25T00:01:30;205.50;2252.80
55026;DHT22;40925;45.666;18.994;2022-11-25T00:03:57;205.50;2252.80
55026;DHT22;40925;45.666;18.994;2022-11-25T00:06:25;205.40;2252.80
55026;DHT22;40925;45.666;18.994;2022-11-25T00:08:57;205.30;2252.80
55026;DHT22;40925;45.666;18.994;2022-11-25T00:11:23;205.20;2252.80
55026;DHT22;40925;45.666;18.994;2022-11-25T00:13:49;205.10;2252.80
55026;DHT22;40925;45.666;18.994;2022-11-25T00:16:17;205.10;2252.80
55026;DHT22;40925;45.666;18.994;2022-11-25T00:18:48;205.10;2252.80
55026;DHT22;40925;45.666;18.994;2022-11-25T00:21:17;205.00;2252.80
55026;DHT22;40925;45.666;18.994;2022-11-25T00:23:43;204.90;2252.80
55026;DHT22;40925;45.666;18.994;2022-11-25T00:26:14;204.80;1868.80
55026;DHT22;40925;45.666;18.994;2022-11-25T00:28:44;204.80;2252.80
55026;DHT22;40925;45.666;18.994;2022-11-25T00:33:39;180.00;2201.60
55026;DHT22;40925;45.666;18.994;2022-11-25T00:36:13;180.00;2252.80
55026;DHT22;40925;45.666;18.994;2022-11-25T00:38:39;179.90;2252.80
55026;DHT22;40925;45.666;18.994;2022-11-25T00:41:05;179.90;2252.80
55026;DHT22;40925;45.666;18.994;2022-11-25T00:43:49;179.90;2252.80
55026;DHT22;40925;45.666;18.994;2022-11-25T00:46:34;179.80;2252.80
55026;DHT22;40925;45.666;18.994;2022-11-25T00:49:00;179.70;2252.80
55026;DHT22;40925;45.666;18.994;2022-11-25T00:51:25;179.70;2252.80
55026;DHT22;40925;45.666;18.994;2022-11-25T00:53:51;179.50;2252.80
55026;DHT22;40925;45.666;18.994;2022-11-25T00:56:17;179.40;2252.80
55026;DHT22;40925;45.666;18.994;2022-11-25T00:58:43;179.30;2252.80
55026;DHT22;40925;45.666;18.994;2022-11-25T01:01:10;179.20;2252.80
55026;DHT22;40925;45.666;18.994;2022-11-25T01:03:37;179.20;2252.80
55026;DHT22;40925;45.666;18.994;2022-11-25T01:06:08;154.40;2252.80
55026;DHT22;40925;45.666;18.994;2022-11-25T01:08:35;154.30;2252.80
55026;DHT22;40925;45.666;18.994;2022-11-25T01:11:04;154.20;2252.80
55026;DHT22;40925;45.666;18.994;2022-11-25T01:13:30;154.20;2252.80
55026;DHT22;40925;45.666;18.994;2022-11-25T01:15:56;154.10;2252.80
55026;DHT22;40925;45.666;18.994;2022-11-25T01:18:22;154.00;2252.80
55026;DHT22;40925;45.666;18.994;2022-11-25T01:20:48;154.00;2252.80
55026;DHT22;40925;45.666;18.994;2022-11-25T01:23:13;154.00;2252.80
55026;DHT22;40925;45.666;18.994;2022-11-25T01:25:39;153.90;2252.80
55026;DHT22;40925;45.666;18.994;2022-11-25T01:28:06;153.90;2252.80
55026;DHT22;40925;45.666;18.994;2022-11-25T01:30:32;154.00;2252.80
55026;DHT22;40925;45.666;18.994;2022-11-25T01:32:58;154.00;2252.80
55026;DHT22;40925;45.666;18.994;2022-11-25T01:35:23;154.00;2252.80
55026;DHT22;40925;45.666;18.994;2022-11-25T01:37:49;154.00;2252.80
55026;DHT22;40925;45.666;18.994;2022-11-25T01:40:15;154.00;2252.80
55026;DHT22;40925;45.666;18.994;2022-11-25T01:42:45;153.90;2252.80
55026;DHT22;40925;45.666;18.994;2022-11-25T01:45:36;153.80;2252.80
55026;DHT22;40925;45.666;18.994;2022-11-25T01:48:10;153.70;2252.80
55026;DHT22;40925;45.666;18.994;2022-11-25T01:50:37;153.70;2252.80
55026;DHT22;40925;45.666;18.994;2022-11-25T01:53:05;153.70;2252.80
55026;DHT22;40925;45.666;18.994;2022-11-25T01:55:34;153.70;2252.80
55026;DHT22;40925;45.666;18.994;2022-11-25T01:58:05;153.60;2252.80
55026;DHT22;40925;45.666;18.994;2022-11-25T02:00:32;153.60;2252.80
55026;DHT22;40925;45.666;18.994;2022-11-25T02:02:57;128.90;2252.80
55026;DHT22;40925;45.666;18.994;2022-11-25T02:08:15;128.90;2252.80
55026;DHT22;40925;45.666;18.994;2022-11-25T02:10:42;153.60;2252.80
55026;DHT22;40925;45.666;18.994;2022-11-25T02:13:09;128.90;2252.80
55026;DHT22;40925;45.666;18.994;2022-11-25T02:15:35;153.60;2252.80
55026;DHT22;40925;45.666;18.994;2022-11-25T02:18:01;128.90;2252.80
55026;DHT22;40925;45.666;18.994;2022-11-25T02:20:27;128.90;2252.80
55026;DHT22;40925;45.666;18.994;2022-11-25T02:23:11;128.80;2252.80
55026;DHT22;40925;45.666;18.994;2022-11-25T02:25:40;128.80;2252.80
55026;DHT22;40925;45.666;18.994;2022-11-25T02:28:08;128.70;2252.80
55026;DHT22;40925;45.666;18.994;2022-11-25T02:30:35;128.70;2252.80
55026;DHT22;40925;45.666;18.994;2022-11-25T02:33:00;128.60;2252.80
55026;DHT22;40925;45.666;18.994;2022-11-25T02:37:55;128.50;2252.80
55026;DHT22;40925;45.666;18.994;2022-11-25T02:40:23;128.50;2252.80
55026;DHT22;40925;45.666;18.994;2022-11-25T02:42:51;128.50;2252.80
55026;DHT22;40925;45.666;18.994;2022-11-25T02:45:21;128.50;2252.80
55026;DHT22;40925;45.666;18.994;2022-11-25T02:47:49;128.50;2252.80
55026;DHT22;40925;45.666;18.994;2022-11-25T02:50:17;128.50;2252.80
55026;DHT22;40925;45.666;18.994;2022-11-25T02:52:43;128.40;2252.80
55026;DHT22;40925;45.666;18.994;2022-11-25T02:55:10;128.40;2252.80
55026;DHT22;40925;45.666;18.994;2022-11-25T02:57:36;128.30;2252.80
55026;DHT22;40925;45.666;18.994;2022-11-25T03:00:05;128.40;2252.80
55026;DHT22;40925;45.666;18.994;2022-11-25T03:02:33;128.40;2252.80
55026;DHT22;40925;45.666;18.994;2022-11-25T03:04:59;128.30;2252.80
55026;DHT22;40925;45.666;18.994;2022-11-25T03:07:26;128.30;2252.80
55026;DHT22;40925;45.666;18.994;2022-11-25T03:09:52;128.30;2252.80
55026;DHT22;40925;45.666;18.994;2022-11-25T03:12:20;128.30;2252.80
55026;DHT22;40925;45.666;18.994;2022-11-25T03:14:50;128.30;2252.80
55026;DHT22;40925;45.666;18.994;2022-11-25T03:17:17;128.30;2252.80
55026;DHT22;40925;45.666;18.994;2022-11-25T03:19:43;128.30;2252.80
55026;DHT22;40925;45.666;18.994;2022-11-25T03:22:10;128.40;2252.80
55026;DHT22;40925;45.666;18.994;2022-11-25T03:24:36;128.40;2252.80
55026;DHT22;40925;45.666;18.994;2022-11-25T03:27:05;128.40;2252.80
55026;DHT22;40925;45.666;18.994;2022-11-25T03:29:33;128.40;2252.80
55026;DHT22;40925;45.666;18.994;2022-11-25T03:31:59;128.40;2252.80
55026;DHT22;40925;45.666;18.994;2022-11-25T03:34:25;128.40;2252.80
55026;DHT22;40925;45.666;18.994;2022-11-25T03:36:51;128.40;2252.80
55026;DHT22;40925;45.666;18.994;2022-11-25T03:39:19;128.40;2252.80
55026;DHT22;40925;45.666;18.994;2022-11-25T03:41:45;128.40;2252.80
55026;DHT22;40925;45.666;18.994;2022-11-25T03:44:11;128.40;2252.80
55026;DHT22;40925;45.666;18.994;2022-11-25T03:46:38;128.40;2252.80
55026;DHT22;40925;45.666;18.994;2022-11-25T03:49:07;128.40;2252.80
55026;DHT22;40925;45.666;18.994;2022-11-25T03:51:35;128.40;2252.80
55026;DHT22;40925;45.666;18.994;2022-11-25T03:54:01;128.30;2252.80
55026;DHT22;40925;45.666;18.994;2022-11-25T03:56:27;128.30;2252.80
55026;DHT22;40925;45.666;18.994;2022-11-25T03:58:56;128.40;2252.80
55026;DHT22;40925;45.666;18.994;2022-11-25T04:01:24;128.30;2252.80
55026;DHT22;40925;45.666;18.994;2022-11-25T04:03:52;128.30;2252.80
55026;DHT22;40925;45.666;18.994;2022-11-25T04:06:22;128.20;2252.80
55026;DHT22;40925;45.666;18.994;2022-11-25T04:08:49;128.30;2252.80
55026;DHT22;40925;45.666;18.994;2022-11-25T04:11:16;128.20;2252.80
55026;DHT22;40925;45.666;18.994;2022-11-25T04:13:45;128.30;2252.80
55026;DHT22;40925;45.666;18.994;2022-11-25T04:16:22;128.30;2252.80
55026;DHT22;40925;45.666;18.994;2022-11-25T04:18:51;128.20;2252.80
55026;DHT22;40925;45.666;18.994;2022-11-25T04:21:18;128.20;2252.80
55026;DHT22;40925;45.666;18.994;2022-11-25T04:23:45;128.20;2252.80
55026;DHT22;40925;45.666;18.994;2022-11-25T04:26:11;128.20;2252.80
55026;DHT22;40925;45.666;18.994;2022-11-25T04:28:40;128.10;2252.80
55026;DHT22;40925;45.666;18.994;2022-11-25T04:31:07;128.10;2252.80
55026;DHT22;40925;45.666;18.994;2022-11-25T04:33:34;128.10;2252.80
55026;DHT22;40925;45.666;18.994;2022-11-25T04:36:02;128.10;2252.80
55026;DHT22;40925;45.666;18.994;2022-11-25T04:38:29;128.10;2252.80
55026;DHT22;40925;45.666;18.994;2022-11-25T04:40:56;128.10;2252.80
55026;DHT22;40925;45.666;18.994;2022-11-25T04:43:23;128.00;2252.80
55026;DHT22;40925;45.666;18.994;2022-11-25T04:45:54;128.10;2252.80
55026;DHT22;40925;45.666;18.994;2022-11-25T04:48:20;128.10;2252.80
55026;DHT22;40925;45.666;18.994;2022-11-25T04:50:47;128.10;2252.80
55026;DHT22;40925;45.666;18.994;2022-11-25T04:53:13;128.00;2252.80
55026;DHT22;40925;45.666;18.994;2022-11-25T04:55:41;128.10;2252.80
55026;DHT22;40925;45.666;18.994;2022-11-25T04:58:11;128.00;2252.80
55026;DHT22;40925;45.666;18.994;2022-11-25T05:00:39;128.00;2252.80
55026;DHT22;40925;45.666;18.994;2022-11-25T05:03:09;103.30;2227.20
55026;DHT22;40925;45.666;18.994;2022-11-25T05:05:38;103.30;2227.20
55026;DHT22;40925;45.666;18.994;2022-11-25T05:08:04;103.30;2227.20
55026;DHT22;40925;45.666;18.994;2022-11-25T05:10:32;103.30;2227.20
55026;DHT22;40925;45.666;18.994;2022-11-25T05:12:58;103.30;2227.20
55026;DHT22;40925;45.666;18.994;2022-11-25T05:15:24;103.30;2227.20
55026;DHT22;40925;45.666;18.994;2022-11-25T05:17:51;103.30;2227.20
55026;DHT22;40925;45.666;18.994;2022-11-25T05:20:19;103.20;2227.20
55026;DHT22;40925;45.666;18.994;2022-11-25T05:22:45;103.20;2227.20
55026;DHT22;40925;45.666;18.994;2022-11-25T05:25:11;103.20;2227.20
55026;DHT22;40925;45.666;18.994;2022-11-25T05:28:01;103.10;2227.20
55026;DHT22;40925;45.666;18.994;2022-11-25T05:30:26;103.10;2227.20
55026;DHT22;40925;45.666;18.994;2022-11-25T05:32:54;103.00;2227.20
55026;DHT22;40925;45.666;18.994;2022-11-25T05:35:23;103.00;2227.20
55026;DHT22;40925;45.666;18.994;2022-11-25T05:37:48;103.00;2227.20
55026;DHT22;40925;45.666;18.994;2022-11-25T05:40:18;103.00;2227.20
55026;DHT22;40925;45.666;18.994;2022-11-25T05:42:46;103.00;2227.20
55026;DHT22;40925;45.666;18.994;2022-11-25T05:45:13;103.00;2227.20
55026;DHT22;40925;45.666;18.994;2022-11-25T05:47:39;103.00;2227.20
55026;DHT22;40925;45.666;18.994;2022-11-25T05:50:08;102.90;2227.20
55026;DHT22;40925;45.666;18.994;2022-11-25T05:52:38;103.00;2227.20
55026;DHT22;40925;45.666;18.994;2022-11-25T05:55:07;103.10;2227.20
55026;DHT22;40925;45.666;18.994;2022-11-25T05:57:36;103.10;2227.20
55026;DHT22;40925;45.666;18.994;2022-11-25T06:00:04;103.10;2227.20
55026;DHT22;40925;45.666;18.994;2022-11-25T06:02:31;103.10;2227.20
55026;DHT22;40925;45.666;18.994;2022-11-25T06:04:58;103.20;2227.20
55026;DHT22;40925;45.666;18.994;2022-11-25T06:07:27;103.20;2227.20
55026;DHT22;40925;45.666;18.994;2022-11-25T06:09:55;103.20;2227.20
55026;DHT22;40925;45.666;18.994;2022-11-25T06:12:26;103.30;2227.20
55026;DHT22;40925;45.666;18.994;2022-11-25T06:14:58;128.20;2252.80
55026;DHT22;40925;45.666;18.994;2022-11-25T06:17:29;128.40;2252.80
55026;DHT22;40925;45.666;18.994;2022-11-25T06:19:56;128.40;2252.80
55026;DHT22;40925;45.666;18.994;2022-11-25T06:22:24;128.50;2252.80
55026;DHT22;40925;45.666;18.994;2022-11-25T06:24:55;128.60;2252.80
55026;DHT22;40925;45.666;18.994;2022-11-25T06:27:26;128.70;2252.80
55026;DHT22;40925;45.666;18.994;2022-11-25T06:29:59;128.70;2252.80
55026;DHT22;40925;45.666;18.994;2022-11-25T06:32:29;128.80;2252.80
55026;DHT22;40925;45.666;18.994;2022-11-25T06:34:58;128.80;2252.80
55026;DHT22;40925;45.666;18.994;2022-11-25T06:37:30;128.80;2252.80
55026;DHT22;40925;45.666;18.994;2022-11-25T06:39:59;128.90;2252.80
55026;DHT22;40925;45.666;18.994;2022-11-25T06:42:29;153.70;2252.80
55026;DHT22;40925;45.666;18.994;2022-11-25T06:44:57;154.30;2252.80
55026;DHT22;40925;45.666;18.994;2022-11-25T06:47:28;179.50;2252.80
55026;DHT22;40925;45.666;18.994;2022-11-25T06:49:58;204.90;2252.80
55026;DHT22;40925;45.666;18.994;2022-11-25T06:52:29;205.70;2252.80
55026;DHT22;40925;45.666;18.994;2022-11-25T06:54:59;230.80;2252.80
55026;DHT22;40925;45.666;18.994;2022-11-25T06:57:29;231.30;2252.80
55026;DHT22;40925;45.666;18.994;2022-11-25T06:59:54;256.60;2252.80
55026;DHT22;40925;45.666;18.994;2022-11-25T07:02:26;281.60;2278.40
55026;DHT22;40925;45.666;18.994;2022-11-25T07:04:57;282.50;2278.40
55026;DHT22;40925;45.666;18.994;2022-11-25T07:07:28;307.30;2304.00
55026;DHT22;40925;45.666;18.994;2022-11-25T07:09:55;307.70;2304.00
55026;DHT22;40925;45.666;18.994;2022-11-25T07:12:24;333.10;2329.60
55026;DHT22;40925;45.666;18.994;2022-11-25T07:14:53;333.50;2329.60
55026;DHT22;40925;45.666;18.994;2022-11-25T07:17:20;358.80;2329.60
55026;DHT22;40925;45.666;18.994;2022-11-25T07:19:50;359.30;2329.60
55026;DHT22;40925;45.666;18.994;2022-11-25T07:22:19;384.30;2329.60
55026;DHT22;40925;45.666;18.994;2022-11-25T07:24:47;384.70;2329.60
55026;DHT22;40925;45.666;18.994;2022-11-25T07:27:13;409.80;2355.20
55026;DHT22;40925;45.666;18.994;2022-11-25T07:29:41;410.30;2355.20
55026;DHT22;40925;45.666;18.994;2022-11-25T07:32:06;410.50;2355.20
55026;DHT22;40925;45.666;18.994;2022-11-25T07:34:36;435.50;2355.20
55026;DHT22;40925;45.666;18.994;2022-11-25T07:37:02;436.10;2278.40
55026;DHT22;40925;45.666;18.994;2022-11-25T07:39:28;461.20;2150.40
55026;DHT22;40925;45.666;18.994;2022-11-25T07:41:58;461.60;2048.00
55026;DHT22;40925;45.666;18.994;2022-11-25T07:44:27;486.40;1971.20
55026;DHT22;40925;45.666;18.994;2022-11-25T07:46:57;486.80;1945.60
55026;DHT22;40925;45.666;18.994;2022-11-25T07:49:28;487.20;1868.80
55026;DHT22;40925;45.666;18.994;2022-11-25T07:51:58;512.30;1894.40
55026;DHT22;40925;45.666;18.994;2022-11-25T07:54:28;512.90;1715.20
55026;DHT22;40925;45.666;18.994;2022-11-25T07:56:58;537.80;1715.20
55026;DHT22;40925;45.666;18.994;2022-11-25T07:59:28;538.10;1664.00
55026;DHT22;40925;45.666;18.994;2022-11-25T08:01:57;563.20;1612.80
55026;DHT22;40925;45.666;18.994;2022-11-25T08:04:27;538.40;1561.60
55026;DHT22;40925;45.666;18.994;2022-11-25T08:06:54;563.30;1536.00
55026;DHT22;40925;45.666;18.994;2022-11-25T08:09:22;563.60;1510.40
55026;DHT22;40925;45.666;18.994;2022-11-25T08:11:49;563.80;1459.20
55026;DHT22;40925;45.666;18.994;2022-11-25T08:14:21;564.00;1484.80
55026;DHT22;40925;45.666;18.994;2022-11-25T08:16:47;589.10;1408.00
55026;DHT22;40925;45.666;18.994;2022-11-25T08:19:15;589.10;1408.00
55026;DHT22;40925;45.666;18.994;2022-11-25T08:21:42;589.30;1382.40
55026;DHT22;40925;45.666;18.994;2022-11-25T08:24:16;589.20;1382.40
55026;DHT22;40925;45.666;18.994;2022-11-25T08:26:42;589.20;1382.40
55026;DHT22;40925;45.666;18.994;2022-11-25T08:29:14;589.70;1356.80
55026;DHT22;40925;45.666;18.994;2022-11-25T08:31:42;589.30;1331.20
55026;DHT22;40925;45.666;18.994;2022-11-25T08:34:09;564.10;1382.40
55026;DHT22;40925;45.666;18.994;2022-11-25T08:36:37;538.50;1433.60
55026;DHT22;40925;45.666;18.994;2022-11-25T08:39:05;537.90;1510.40
55026;DHT22;40925;45.666;18.994;2022-11-25T08:41:34;537.80;1510.40
55026;DHT22;40925;45.666;18.994;2022-11-25T08:44:03;537.90;1510.40
55026;DHT22;40925;45.666;18.994;2022-11-25T08:46:34;512.70;1561.60
55026;DHT22;40925;45.666;18.994;2022-11-25T08:49:03;461.20;1740.80
55026;DHT22;40925;45.666;18.994;2022-11-25T08:51:33;435.70;1894.40
55026;DHT22;40925;45.666;18.994;2022-11-25T08:53:59;410.30;2073.60
55026;DHT22;40925;45.666;18.994;2022-11-25T08:56:26;409.60;2252.80
55026;DHT22;40925;45.666;18.994;2022-11-25T08:58:54;409.70;2355.20
55026;DHT22;40925;45.666;18.994;2022-11-25T09:01:26;409.80;2355.20
55026;DHT22;40925;45.666;18.994;2022-11-25T09:03:58;409.60;2355.20
55026;DHT22;40925;45.666;18.994;2022-11-25T09:06:25;384.70;2329.60
55026;DHT22;40925;45.666;18.994;2022-11-25T09:08:58;384.40;2329.60
55026;DHT22;40925;45.666;18.994;2022-11-25T09:11:25;359.30;2329.60
55026;DHT22;40925;45.666;18.994;2022-11-25T09:13:51;359.20;2329.60
55026;DHT22;40925;45.666;18.994;2022-11-25T09:16:17;359.10;2329.60
55026;DHT22;40925;45.666;18.994;2022-11-25T09:18:46;358.70;2329.60
55026;DHT22;40925;45.666;18.994;2022-11-25T09:21:14;358.50;2329.60
55026;DHT22;40925;45.666;18.994;2022-11-25T09:23:42;333.70;2329.60
55026;DHT22;40925;45.666;18.994;2022-11-25T09:26:23;333.50;2329.60
55026;DHT22;40925;45.666;18.994;2022-11-25T09:28:49;333.40;2329.60
55026;DHT22;40925;45.666;18.994;2022-11-25T09:31:14;332.90;2329.60
55026;DHT22;40925;45.666;18.994;2022-11-25T09:33:40;332.90;2329.60
55026;DHT22;40925;45.666;18.994;2022-11-25T09:36:06;332.80;2329.60
55026;DHT22;40925;45.666;18.994;2022-11-25T09:38:32;333.00;2329.60
55026;DHT22;40925;45.666;18.994;2022-11-25T09:46:50;308.00;2304.00
55026;DHT22;40925;45.666;18.994;2022-11-25T09:55:22;332.90;2329.60
55026;DHT22;40925;45.666;18.994;2022-11-25T10:00:24;333.30;2329.60
55026;DHT22;40925;45.666;18.994;2022-11-25T10:03:00;333.20;2329.60
55026;DHT22;40925;45.666;18.994;2022-11-25T10:05:46;333.20;2329.60
55026;DHT22;40925;45.666;18.994;2022-11-25T10:08:22;333.30;2329.60
55026;DHT22;40925;45.666;18.994;2022-11-25T10:10:57;332.80;2329.60
55026;DHT22;40925;45.666;18.994;2022-11-25T10:13:43;332.80;2329.60
55026;DHT22;40925;45.666;18.994;2022-11-25T10:19:12;333.00;2329.60
55026;DHT22;40925;45.666;18.994;2022-11-25T10:21:42;332.80;2329.60
55026;DHT22;40925;45.666;18.994;2022-11-25T10:24:16;333.10;2329.60
55026;DHT22;40925;45.666;18.994;2022-11-25T10:26:58;333.20;2329.60
55026;DHT22;40925;45.666;18.994;2022-11-25T10:29:33;333.10;2329.60
55026;DHT22;40925;45.666;18.994;2022-11-25T10:32:24;333.10;2329.60
55026;DHT22;40925;45.666;18.994;2022-11-25T10:35:06;333.40;2329.60
55026;DHT22;40925;45.666;18.994;2022-11-25T10:37:47;333.30;2329.60
55026;DHT22;40925;45.666;18.994;2022-11-25T10:40:24;333.50;2329.60
55026;DHT22;40925;45.666;18.994;2022-11-25T10:42:56;333.60;2329.60
55026;DHT22;40925;45.666;18.994;2022-11-25T10:45:30;358.40;2329.60
55026;DHT22;40925;45.666;18.994;2022-11-25T10:54:28;359.10;2329.60
55026;DHT22;40925;45.666;18.994;2022-11-25T10:57:18;384.10;2329.60
55026;DHT22;40925;45.666;18.994;2022-11-25T10:59:55;384.40;2329.60
55026;DHT22;40925;45.666;18.994;2022-11-25T11:03:00;384.40;2329.60
55026;DHT22;40925;45.666;18.994;2022-11-25T11:05:27;435.30;2355.20
55026;DHT22;40925;45.666;18.994;2022-11-25T11:08:23;512.80;1894.40
55026;DHT22;40925;45.666;18.994;2022-11-25T11:11:19;537.70;1766.40
55026;DHT22;40925;45.666;18.994;2022-11-25T11:13:46;589.40;1484.80
55026;DHT22;40925;45.666;18.994;2022-11-25T11:16:38;665.60;1280.00
55026;DHT22;40925;45.666;18.994;2022-11-25T11:19:04;717.30;1100.80
55026;DHT22;40925;45.666;18.994;2022-11-25T11:21:33;768.50;972.80
55026;DHT22;40925;45.666;18.994;2022-11-25T11:24:02;794.20;921.60
55026;DHT22;40925;45.666;18.994;2022-11-25T11:26:32;819.40;844.80
55026;DHT22;40925;45.666;18.994;2022-11-25T11:29:02;844.80;870.40
55026;DHT22;40925;45.666;18.994;2022-11-25T11:31:35;844.80;870.40
55026;DHT22;40925;45.666;18.994;2022-11-25T11:34:10;845.60;819.20
55026;DHT22;40925;45.666;18.994;2022-11-25T11:42:59;845.70;819.20
55026;DHT22;40925;45.666;18.994;2022-11-25T11:50:49;793.70;844.80
55026;DHT22;40925;45.666;18.994;2022-11-25T12:03:24;640.60;1049.60
55026;DHT22;40925;45.666;18.994;2022-11-25T12:05:52;666.50;998.40
55026;DHT22;40925;45.666;18.994;2022-11-25T12:08:42;691.80;947.20
55026;DHT22;40925;45.666;18.994;2022-11-25T12:11:15;666.20;998.40
55026;DHT22;40925;45.666;18.994;2022-11-25T12:14:08;691.30;972.80
55026;DHT22;40925;45.666;18.994;2022-11-25T12:16:51;692.10;947.20
55026;DHT22;40925;45.666;18.994;2022-11-25T12:19:38;742.40;921.60
55026;DHT22;40925;45.666;18.994;2022-11-25T12:25:16;768.80;844.80
55026;DHT22;40925;45.666;18.994;2022-11-25T12:28:05;794.10;844.80
55026;DHT22;40925;45.666;18.994;2022-11-25T12:30:50;794.30;844.80
55026;DHT22;40925;45.666;18.994;2022-11-25T12:36:17;794.20;819.20
55026;DHT22;40925;45.666;18.994;2022-11-25T12:41:46;820.00;793.60
55026;DHT22;40925;45.666;18.994;2022-11-25T12:46:55;794.20;844.80
55026;DHT22;40925;45.666;18.994;2022-11-25T12:49:38;794.30;844.80
55026;DHT22;40925;45.666;18.994;2022-11-25T13:11:24;768.40;819.20
55026;DHT22;40925;45.666;18.994;2022-11-25T13:16:51;743.00;844.80
55026;DHT22;40925;45.666;18.994;2022-11-25T13:19:19;743.20;819.20
55026;DHT22;40925;45.666;18.994;2022-11-25T13:24:49;742.80;844.80
55026;DHT22;40925;45.666;18.994;2022-11-25T13:35:47;665.80;972.80
55026;DHT22;40925;45.666;18.994;2022-11-25T13:41:19;589.00;1126.40
55026;DHT22;40925;45.666;18.994;2022-11-25T13:46:50;614.70;1049.60
55026;DHT22;40925;45.666;18.994;2022-11-25T13:52:05;640.20;1024.00
55026;DHT22;40925;45.666;18.994;2022-11-25T13:59:51;640.50;972.80
55026;DHT22;40925;45.666;18.994;2022-11-25T14:04:58;615.30;998.40
55026;DHT22;40925;45.666;18.994;2022-11-25T14:11:22;537.90;1228.80
55026;DHT22;40925;45.666;18.994;2022-11-25T14:26:55;409.60;1817.60
55026;DHT22;40925;45.666;18.994;2022-11-25T14:29:22;384.20;1920.00
55026;DHT22;40925;45.666;18.994;2022-11-25T14:31:50;359.20;2150.40
55026;DHT22;40925;45.666;18.994;2022-11-25T14:34:22;358.90;2329.60
55026;DHT22;40925;45.666;18.994;2022-11-25T14:36:54;358.60;2329.60
55026;DHT22;40925;45.666;18.994;2022-11-25T14:39:22;333.50;2329.60
55026;DHT22;40925;45.666;18.994;2022-11-25T14:44:23;333.00;2329.60
55026;DHT22;40925;45.666;18.994;2022-11-25T14:46:52;308.10;2304.00
55026;DHT22;40925;45.666;18.994;2022-11-25T14:49:18;307.80;2304.00
55026;DHT22;40925;45.666;18.994;2022-11-25T14:51:45;307.50;2304.00
55026;DHT22;40925;45.666;18.994;2022-11-25T14:54:12;307.20;2304.00
55026;DHT22;40925;45.666;18.994;2022-11-25T14:56:40;282.50;2278.40
55026;DHT22;40925;45.666;18.994;2022-11-25T14:59:06;282.20;2278.40
55026;DHT22;40925;45.666;18.994;2022-11-25T15:01:33;282.00;2278.40
55026;DHT22;40925;45.666;18.994;2022-11-25T15:04:04;281.70;2278.40
55026;DHT22;40925;45.666;18.994;2022-11-25T15:06:34;281.80;2278.40
55026;DHT22;40925;45.666;18.994;2022-11-25T15:09:00;256.60;2252.80
55026;DHT22;40925;45.666;18.994;2022-11-25T15:11:28;256.70;2252.80
55026;DHT22;40925;45.666;18.994;2022-11-25T15:14:02;256.60;2252.80
55026;DHT22;40925;45.666;18.994;2022-11-25T15:16:35;256.70;2252.80
55026;DHT22;40925;45.666;18.994;2022-11-25T15:19:13;256.50;2252.80
55026;DHT22;40925;45.666;18.994;2022-11-25T15:21:45;256.40;2252.80
55026;DHT22;40925;45.666;18.994;2022-11-25T15:26:59;256.10;2252.80
55026;DHT22;40925;45.666;18.994;2022-11-25T15:29:28;256.10;2252.80
55026;DHT22;40925;45.666;18.994;2022-11-25T15:31:55;256.00;2252.80
55026;DHT22;40925;45.666;18.994;2022-11-25T15:34:24;231.30;2252.80
55026;DHT22;40925;45.666;18.994;2022-11-25T15:36:54;231.10;2252.80
55026;DHT22;40925;45.666;18.994;2022-11-25T15:41:51;230.90;2252.80
55026;DHT22;40925;45.666;18.994;2022-11-25T15:44:21;230.90;2252.80
55026;DHT22;40925;45.666;18.994;2022-11-25T15:47:22;230.90;2252.80
55026;DHT22;40925;45.666;18.994;2022-11-25T15:50:05;230.90;2252.80
55026;DHT22;40925;45.666;18.994;2022-11-25T15:52:37;230.80;2252.80
55026;DHT22;40925;45.666;18.994;2022-11-25T15:58:28;230.50;2252.80
55026;DHT22;40925;45.666;18.994;2022-11-25T16:03:49;205.70;2252.80
55026;DHT22;40925;45.666;18.994;2022-11-25T16:06:21;205.70;2252.80
55026;DHT22;40925;45.666;18.994;2022-11-25T16:09:00;205.60;2252.80
55026;DHT22;40925;45.666;18.994;2022-11-25T16:11:29;205.40;2252.80
55026;DHT22;40925;45.666;18.994;2022-11-25T16:14:32;205.40;2252.80
55026;DHT22;40925;45.666;18.994;2022-11-25T16:17:04;205.60;2252.80
55026;DHT22;40925;45.666;18.994;2022-11-25T16:19:41;205.60;2252.80
55026;DHT22;40925;45.666;18.994;2022-11-25T16:22:15;230.40;2252.80
55026;DHT22;40925;45.666;18.994;2022-11-25T16:24:52;205.70;2252.80
55026;DHT22;40925;45.666;18.994;2022-11-25T16:27:26;205.70;2252.80
55026;DHT22;40925;45.666;18.994;2022-11-25T16:32:33;230.40;2252.80
55026;DHT22;40925;45.666;18.994;2022-11-25T16:35:19;230.50;2252.80
55026;DHT22;40925;45.666;18.994;2022-11-25T16:37:47;205.70;2252.80
55026;DHT22;40925;45.666;18.994;2022-11-25T16:40:15;205.70;2252.80
55026;DHT22;40925;45.666;18.994;2022-11-25T16:42:48;205.70;2252.80
55026;DHT22;40925;45.666;18.994;2022-11-25T16:45:23;205.70;2252.80
55026;DHT22;40925;45.666;18.994;2022-11-25T16:47:52;205.70;2252.80
55026;DHT22;40925;45.666;18.994;2022-11-25T16:50:21;205.70;2252.80
55026;DHT22;40925;45.666;18.994;2022-11-25T16:52:49;205.70;2252.80
55026;DHT22;40925;45.666;18.994;2022-11-25T16:55:17;205.60;2252.80
55026;DHT22;40925;45.666;18.994;2022-11-25T16:57:43;205.40;2252.80
55026;DHT22;40925;45.666;18.994;2022-11-25T17:00:13;205.30;2252.80
55026;DHT22;40925;45.666;18.994;2022-11-25T17:02:43;205.30;2252.80
55026;DHT22;40925;45.666;18.994;2022-11-25T17:05:20;205.10;2252.80
55026;DHT22;40925;45.666;18.994;2022-11-25T17:07:49;205.10;2252.80
55026;DHT22;40925;45.666;18.994;2022-11-25T17:10:18;205.00;2252.80
55026;DHT22;40925;45.666;18.994;2022-11-25T17:12:46;205.00;2252.80
55026;DHT22;40925;45.666;18.994;2022-11-25T17:15:18;204.90;2252.80
55026;DHT22;40925;45.666;18.994;2022-11-25T17:17:48;204.80;2252.80
55026;DHT22;40925;45.666;18.994;2022-11-25T17:20:20;180.10;2252.80
55026;DHT22;40925;45.666;18.994;2022-11-25T17:22:52;204.80;2252.80